• Join FlightAware (Why Join?)
  • Login
  • US Flag 
05:29AM EDT


 

Airport Tracker/Info


-or-


 

Live Flight TrackerFlight Track Log ✈ KFS724 ✈ 19-Apr-2013 ✈ KTUS - KSLN

Flight Track Log - Related Links

Times and Time Zones

All times are in EDT time to prevent confusion due to time zone crossing. See the KFS724 flight status page for this flight to view local times or setup timezone preferences in your user account.

Time Position Orientation Groundspeed Altitude Reporting Facility
EDT Latitude Longitude Course Direction KTS MPH feet Rate Location/Type
04:19AM 32.0981 -110.9186 136° Southeast 160 184 3,100  Level Albuquerque Center
04:20AM 32.0786 -110.8961 136° Southeast 166 191 4,000 1,380 Climbing Albuquerque Center
04:21AM 32.0403 -110.8436 131° Southeast 219 252 5,400 1,560 Climbing Albuquerque Center
04:22AM 32.0750 -110.7689 61° Northeast 261 300 7,200 1,620 Climbing Albuquerque Center
04:22AM 32.0825 -110.7581 51° Northeast 297 342 7,500 2,760 Climbing Albuquerque Center
04:23AM 32.1186 -110.6967 55° Northeast 271 312 10,000 2,580 Climbing Albuquerque Center
04:23AM 32.1256 -110.6900 39° Northeast 266 306 10,100 360 Climbing Albuquerque Center
04:24AM 32.1728 -110.6136 54° Northeast 334 384 10,400 360 Climbing Albuquerque Center
04:24AM 32.1792 -110.6039 52° Northeast 305 351 10,500 1,080 Climbing Albuquerque Center
04:25AM 32.2411 -110.4978 55° Northeast 380 437 11,800 1,920 Climbing Albuquerque Center
04:26AM 32.3075 -110.3894 54° Northeast 403 464 14,400 2,700 Climbing Albuquerque Center
04:27AM 32.3908 -110.2711 50° Northeast 404 465 17,200 2,040 Climbing Albuquerque Center
04:28AM 32.4631 -110.1672 50° Northeast 408 470 18,500 1,380 Climbing Albuquerque Center
04:29AM 32.5378 -110.0536 52° Northeast 431 496 20,100 1,680 Climbing Albuquerque Center
04:30AM 32.6150 -109.9431 50° Northeast 438 504 22,000 1,440 Climbing Albuquerque Center
04:31AM 32.6881 -109.8328 52° Northeast 432 497 23,000 900 Climbing Albuquerque Center
04:32AM 32.7628 -109.7169 52° Northeast 438 504 23,800 960 Climbing Albuquerque Center
04:33AM 32.8425 -109.6003 51° Northeast 452 520 25,000 1,200 Climbing Albuquerque Center
04:34AM 32.9214 -109.4844 51° Northeast 454 522 26,300 1,200 Climbing Albuquerque Center
04:35AM 32.9994 -109.3661 52° Northeast 455 524 27,400 960 Climbing Albuquerque Center
04:36AM 33.0789 -109.2481 51° Northeast 455 524 28,300 840 Climbing Albuquerque Center
04:37AM 33.1589 -109.1269 52° Northeast 458 527 29,100 780 Climbing Albuquerque Center
04:38AM 33.2392 -109.0047 52° Northeast 462 532 29,900 840 Climbing Albuquerque Center
04:39AM 33.3189 -108.8836 52° Northeast 463 533 30,900 900 Climbing Albuquerque Center
04:40AM 33.3967 -108.7644 52° Northeast 458 527 31,700 600 Climbing Albuquerque Center
04:41AM 33.4742 -108.6464 52° Northeast 455 524 32,100 420 Climbing Albuquerque Center
04:42AM 33.5528 -108.5261 52° Northeast 458 527 32,600 420 Climbing Albuquerque Center
04:43AM 33.6303 -108.4050 52° Northeast 461 531 33,000 180 Climbing Albuquerque Center
04:44AM 33.7097 -108.2814 52° Northeast 468 539 33,000  Level Albuquerque Center
04:45AM 33.7922 -108.1547 52° Northeast 479 551 33,000  Level Albuquerque Center
04:46AM 33.8764 -108.0178 53° Northeast 480 552 33,000 -60 Level Albuquerque Center
04:47AM 33.9500 -107.8814 57° Northeast 483 556 32,900  Descending Albuquerque Center
04:48AM 34.0258 -107.7456 56° Northeast 485 558 33,000  Climbing Albuquerque Center
04:49AM 34.0989 -107.6158 56° Northeast 475 547 33,000  Level Albuquerque Center
04:50AM 34.1708 -107.4856 56° Northeast 469 540 33,000  Level Albuquerque Center
04:51AM 34.2431 -107.3553 56° Northeast 467 537 33,000  Level Albuquerque Center
04:52AM 34.3156 -107.2269 56° Northeast 458 527 33,000  Level Albuquerque Center
04:53AM 34.3861 -107.0983 56° Northeast 459 528 33,000  Level Albuquerque Center
04:54AM 34.4581 -106.9697 56° Northeast 462 532 33,000  Level Albuquerque Center
04:55AM 34.5286 -106.8369 57° Northeast 468 539 33,000  Level Albuquerque Center
04:56AM 34.6003 -106.7031 57° Northeast 474 545 33,000  Level Albuquerque Center
04:57AM 34.6722 -106.5706 57° Northeast 475 547 33,000  Level Albuquerque Center
04:58AM 34.7442 -106.4375 57° Northeast 476 548 33,000  Level Albuquerque Center
04:59AM 34.8161 -106.3033 57° Northeast 476 548 33,000  Level Albuquerque Center
05:00AM 34.8881 -106.1681 57° Northeast 478 550 33,000  Level Albuquerque Center
05:01AM 34.9597 -106.0317 57° Northeast 480 552 33,000  Level Albuquerque Center
05:02AM 35.0342 -105.8964 56° Northeast 482 555 33,000  Level Albuquerque Center
05:03AM 35.1064 -105.7594 57° Northeast 481 554 33,000  Level Albuquerque Center
05:04AM 35.1800 -105.6231 57° Northeast 477 549 33,000  Level Albuquerque Center
05:05AM 35.2511 -105.4867 57° Northeast 473 544 33,000  Level Albuquerque Center
05:06AM 35.3228 -105.3492 57° Northeast 473 544 33,000  Level Albuquerque Center
05:07AM 35.3944 -105.2150 57° Northeast 468 539 33,000  Level Albuquerque Center
05:08AM 35.4617 -105.0786 59° Northeast 464 534 33,000  Level Albuquerque Center
05:09AM 35.5314 -104.9425 58° Northeast 465 535 33,000  Level Albuquerque Center
05:10AM 35.6022 -104.8053 58° Northeast 468 539 33,000  Level Albuquerque Center
05:11AM 35.6728 -104.6706 57° Northeast 465 535 33,000  Level Albuquerque Center
05:12AM 35.7419 -104.5333 58° Northeast 464 534 33,000  Level Albuquerque Center
05:13AM 35.8114 -104.3986 58° Northeast 462 532 33,000  Level Albuquerque Center
05:14AM 35.8797 -104.2619 58° Northeast 461 531 33,000  Level Albuquerque Center
05:15AM 35.9481 -104.1267 58° Northeast 460 529 33,000  Level Albuquerque Center
05:16AM 36.0058 -104.0128 58° Northeast 461 531 33,000  Level Albuquerque Center
05:17AM 36.0750 -103.8769 58° Northeast 463 533 33,000  Level Albuquerque Center
05:18AM 36.1444 -103.7406 58° Northeast 463 533 33,000  Level Albuquerque Center
05:19AM 36.2139 -103.6058 57° Northeast 461 531 33,000  Level Albuquerque Center
05:20AM 36.2814 -103.4661 59° Northeast 466 536 33,000  Level Albuquerque Center
05:21AM 36.3475 -103.3289 59° Northeast 462 532 33,000  Level Albuquerque Center
05:22AM 36.4153 -103.1906 59° Northeast 463 533 33,000  Level Albuquerque Center
05:23AM 36.4833 -103.0531 58° Northeast 463 533 33,000  Level Albuquerque Center
05:24AM 36.5506 -102.9136 59° Northeast 466 536 33,000  Level Albuquerque Center
05:25AM 36.6178 -102.7686 60° Northeast 465 535 33,000  Level Albuquerque Center
05:26AM 36.6903 -102.6244 58° Northeast 464 534 33,000  Level Albuquerque Center
05:27AM 36.7517 -102.4925 60° Northeast 466 536 33,000  Level Albuquerque Center
05:28AM 36.8175 -102.3542 59° Northeast 465 535 33,000  Level Albuquerque Center
05:29AM 36.8858 -102.2150 58° Northeast 462 532 33,000  Level Albuquerque Center
05:30AM 36.9503 -102.0844 58° Northeast 463 533 33,000  Level Albuquerque Center
05:32AM 37.0122 -101.9517 60° Northeast 462 532 33,000  Level Albuquerque Center
05:33AM 37.0831 -101.7956 60° Northeast 462 532 33,000  Level Albuquerque Center
05:33AM 37.1342 -101.6831 60° Northeast 462 532 33,000  Level Kansas City Center
05:34AM 37.1967 -101.5503 59° Northeast 462 532 33,000  Level Kansas City Center
05:35AM 37.2594 -101.4186 59° Northeast 461 531 33,000  Level Kansas City Center
05:36AM 37.3308 -101.2633 60° Northeast 461 531 33,000  Level Kansas City Center
05:37AM 37.3928 -101.1306 60° Northeast 461 531 33,000  Level Kansas City Center
05:38AM 37.4539 -100.9975 60° Northeast 462 532 33,000  Level Kansas City Center
05:39AM 37.5208 -100.8503 60° Northeast 459 528 33,000  Level Kansas City Center
05:40AM 37.5853 -100.7106 60° Northeast 458 527 33,000  Level Kansas City Center
05:41AM 37.6486 -100.5703 60° Northeast 458 527 33,000  Level Kansas City Center
05:42AM 37.7133 -100.4264 60° Northeast 459 528 33,000  Level Kansas City Center
05:43AM 37.7750 -100.2922 60° Northeast 462 532 33,000  Level Kansas City Center
05:44AM 37.8358 -100.1542 61° Northeast 468 539 33,000  Level Kansas City Center
05:45AM 37.9061 -99.9956 61° Northeast 465 535 33,000  Level Kansas City Center
05:46AM 37.9664 -99.8578 61° Northeast 466 536 33,000  Level Kansas City Center
05:47AM 38.0272 -99.7208 61° Northeast 466 536 33,000  Level Kansas City Center
05:48AM 38.0958 -99.5600 62° Northeast 466 536 33,000 -420 Level Kansas City Center
05:49AM 38.1494 -99.4333 62° Northeast 467 537 32,200 -1,800 Descending Kansas City Center
05:50AM 38.2161 -99.2875 60° Northeast 473 544 29,400 -3,000 Descending Kansas City Center
05:51AM 38.2794 -99.1433 61° Northeast 469 540 26,200 -3,120 Descending Kansas City Center
05:52AM 38.3417 -99.0019 61° Northeast 460 529 23,100 -3,180 Descending Kansas City Center
05:53AM 38.3825 -98.8531 71° East 451 519 19,900 -3,000 Descending Kansas City Center
05:54AM 38.4214 -98.7044 71° East 436 502 17,200 -2,700 Descending Kansas City Center
05:55AM 38.4550 -98.5669 73° East 408 470 14,400 -2,760 Descending Kansas City Center
05:56AM 38.4883 -98.4361 72° East 389 448 11,600 -2,220 Descending Kansas City Center
05:57AM 38.5189 -98.3139 72° East 363 418 10,000 -1,140 Descending Kansas City Center
05:58AM 38.5431 -98.2161 72° East 288 331 9,400 -1,260 Descending Kansas City Center
06:00AM 38.5675 -98.1219 72° East 279 321 7,500 -1,620 Descending Kansas City Center
06:00AM 38.5883 -98.0294 74° East 272 313 6,200 -1,260 Descending Kansas City Center
06:02AM 38.6106 -97.9425 72° East 259 298 5,000 -1,140 Descending Kansas City Center
06:03AM 38.6300 -97.8625 73° East 239 275 3,900 -900 Descending Kansas City Center
06:04AM 38.6539 -97.7900 67° East 225 259 3,300 -360 Descending Kansas City Center
06:05AM 38.6764 -97.7269 65° Northeast 197 227 3,200 -120 Descending Kansas City Center
06:06AM 38.7017 -97.6639 63° Northeast 178 205 3,100 -120 Descending Kansas City Center